Time;durP1;ratioP1;P1;durP2;ratioP2;P2;SDS_P1;SDS_P2;PMS_P1;PMS_P2;Temp;Humidity;BMP_temperature;BMP_pressure;BME280_temperature;BME280_humidity;BME280_pressure;Samples;Min_cycle;Max_cycle;Signal;HPM_P1;HPM_P2
2023/07/24 00:01:32;;;;;;;13.77;8.30;;;17.30;99.90;;;;;;5058134;28;20041;-91
2023/07/24 00:04:19;;;;;;;14.40;8.85;;;17.30;99.90;;;;;;5067706;28;20041;-90
2023/07/24 00:07:09;;;;;;;14.82;9.10;;;17.40;99.90;;;;;;5055097;28;20033;-91
2023/07/24 00:09:57;;;;;;;14.40;8.57;;;17.50;99.90;;;;;;5054291;28;20075;-91
2023/07/24 00:12:46;;;;;;;13.63;8.15;;;17.40;99.90;;;;;;5049151;28;20041;-90
2023/07/24 00:15:35;;;;;;;15.10;8.55;;;17.50;99.90;;;;;;5063678;28;20045;-89
2023/07/24 00:18:25;;;;;;;11.93;8.15;;;17.60;99.90;;;;;;5066864;28;20048;-87
2023/07/24 00:21:15;;;;;;;14.50;8.73;;;17.50;99.90;;;;;;5056753;28;20037;-92
2023/07/24 00:24:03;;;;;;;14.90;8.68;;;17.40;99.90;;;;;;5068193;28;20045;-92
2023/07/24 00:26:50;;;;;;;12.95;7.90;;;17.30;99.90;;;;;;5052554;28;20052;-90
2023/07/24 00:29:39;;;;;;;12.32;8.30;;;17.20;90.10;;;;;;5069434;28;20049;-91
2023/07/24 00:32:30;;;;;;;16.75;8.80;;;17.00;99.90;;;;;;5070933;28;20060;-92
2023/07/24 00:35:23;;;;;;;17.95;9.23;;;16.90;99.90;;;;;;5070648;28;20102;-89
2023/07/24 00:38:10;;;;;;;13.43;8.77;;;16.70;99.90;;;;;;5078128;28;20033;-84
2023/07/24 00:40:58;;;;;;;13.95;8.45;;;16.70;99.90;;;;;;5063009;28;20040;-87
2023/07/24 00:43:45;;;;;;;13.50;8.77;;;16.70;99.90;;;;;;5080100;28;20041;-89
2023/07/24 00:46:34;;;;;;;15.70;8.77;;;16.70;99.90;;;;;;5071892;28;20044;-91
2023/07/24 00:49:25;;;;;;;15.60;8.57;;;16.70;99.90;;;;;;5042875;28;20041;-91
2023/07/24 00:52:15;;;;;;;13.93;8.80;;;16.80;99.90;;;;;;5063832;28;20438;-91
2023/07/24 00:55:05;;;;;;;13.57;9.05;;;16.90;99.90;;;;;;5061916;28;20078;-90
2023/07/24 00:57:53;;;;;;;13.73;8.27;;;16.90;99.90;;;;;;5063970;28;20324;-90
2023/07/24 01:00:41;;;;;;;15.20;9.25;;;16.90;99.90;;;;;;5061642;28;20049;-90
2023/07/24 01:03:33;;;;;;;16.30;9.35;;;16.80;99.90;;;;;;5057297;28;20576;-87
2023/07/24 01:06:20;;;;;;;13.02;8.50;;;16.70;99.90;;;;;;5055269;28;20040;-91
2023/07/24 01:09:07;;;;;;;13.25;8.75;;;16.70;99.90;;;;;;5056925;28;20111;-90
2023/07/24 01:12:19;;;;;;;14.93;8.25;;;16.60;99.90;;;;;;5056683;28;20037;-90
2023/07/24 01:15:26;;;;;;;14.00;8.88;;;16.40;99.90;;;;;;5052685;28;20089;-92
2023/07/24 01:18:17;;;;;;;15.70;9.45;;;16.40;99.90;;;;;;5069082;28;20348;-88
2023/07/24 01:21:07;;;;;;;14.32;9.07;;;16.20;99.90;;;;;;5050757;28;20041;-89
2023/07/24 01:24:26;;;;;;;14.73;8.88;;;16.20;99.90;;;;;;5056116;28;20048;-90
2023/07/24 01:27:26;;;;;;;16.02;10.02;;;16.20;99.90;;;;;;5070700;28;20069;-88
2023/07/24 01:30:24;;;;;;;13.98;9.32;;;16.10;99.90;;;;;;5062209;28;20056;-90
2023/07/24 01:33:18;;;;;;;16.38;8.90;;;16.10;99.90;;;;;;5052089;28;20446;-91
2023/07/24 01:36:07;;;;;;;14.68;8.77;;;16.00;99.90;;;;;;5047890;28;20445;-91
2023/07/24 01:38:54;;;;;;;16.42;9.52;;;15.80;99.90;;;;;;5068531;28;20065;-89
2023/07/24 01:41:44;;;;;;;14.45;9.30;;;15.80;99.90;;;;;;5055140;28;20056;-91
2023/07/24 01:44:32;;;;;;;16.73;9.13;;;15.80;99.90;;;;;;5068291;28;20448;-90
2023/07/24 01:47:21;;;;;;;15.43;8.82;;;16.00;99.90;;;;;;5055248;28;20048;-88
2023/07/24 01:50:09;;;;;;;13.68;8.93;;;16.00;99.90;;;;;;5051459;28;20054;-91
2023/07/24 01:52:56;;;;;;;17.70;9.32;;;16.20;99.90;;;;;;5052040;28;20045;-91
2023/07/24 01:55:45;;;;;;;14.55;9.15;;;16.30;99.90;;;;;;5055906;28;20037;-92
2023/07/24 01:58:33;;;;;;;13.43;8.80;;;16.30;99.90;;;;;;5066851;28;20045;-89
2023/07/24 02:01:20;;;;;;;16.35;9.38;;;16.40;99.90;;;;;;5064621;28;20045;-91
2023/07/24 02:04:10;;;;;;;15.05;8.93;;;16.50;99.90;;;;;;5054433;28;20040;-89
2023/07/24 02:07:11;;;;;;;17.33;9.23;;;16.60;99.90;;;;;;5049282;28;20362;-90
2023/07/24 02:10:17;;;;;;;15.55;9.07;;;16.60;99.90;;;;;;5051218;28;20045;-90
2023/07/24 02:13:24;;;;;;;14.30;8.80;;;16.60;99.90;;;;;;5050318;28;20139;-90
2023/07/24 02:16:12;;;;;;;17.80;10.55;;;16.60;99.90;;;;;;5055417;28;20039;-90
2023/07/24 02:19:01;;;;;;;13.45;8.73;;;16.50;99.90;;;;;;5062014;28;20056;-90
2023/07/24 02:21:48;;;;;;;16.77;9.95;;;16.50;99.90;;;;;;5056937;28;20045;-90
2023/07/24 02:24:36;;;;;;;15.50;9.07;;;16.40;99.90;;;;;;5053934;28;20064;-91
2023/07/24 02:27:31;;;;;;;13.77;8.95;;;16.30;99.90;;;;;;5046810;28;20046;-90
2023/07/24 02:30:27;;;;;;;15.82;9.60;;;16.20;99.90;;;;;;5071491;28;20057;-90
2023/07/24 02:33:14;;;;;;;15.60;9.52;;;16.10;99.90;;;;;;5062164;28;20071;-90
2023/07/24 02:36:01;;;;;;;14.95;8.73;;;16.00;99.90;;;;;;5058438;28;20055;-90
2023/07/24 02:38:52;;;;;;;18.95;9.38;;;15.90;99.90;;;;;;5063575;28;20113;-91
2023/07/24 02:41:39;;;;;;;17.58;11.05;;;15.70;99.90;;;;;;5059704;28;20049;-91
2023/07/24 02:44:35;;;;;;;14.45;9.30;;;15.50;99.90;;;;;;5058899;28;20052;-91
2023/07/24 02:47:27;;;;;;;14.02;9.02;;;15.40;1.00;;;;;;5055810;28;20061;-90
2023/07/24 02:50:15;;;;;;;14.85;9.70;;;15.20;1.00;;;;;;5071861;28;20049;-90
2023/07/24 02:53:02;;;;;;;16.65;9.68;;;15.20;99.90;;;;;;5060020;28;20049;-89
2023/07/24 02:55:56;;;;;;;15.50;9.63;;;15.10;99.90;;;;;;5059003;28;20049;-90
2023/07/24 02:58:43;;;;;;;15.05;9.68;;;15.00;99.90;;;;;;5069199;28;20098;-91
2023/07/24 03:01:33;;;;;;;15.15;9.45;;;15.00;99.90;;;;;;5063244;28;20053;-91
2023/07/24 03:04:21;;;;;;;15.20;9.90;;;14.90;1.00;;;;;;5064242;28;20372;-91
2023/07/24 03:07:11;;;;;;;15.95;9.55;;;14.90;1.00;;;;;;5072229;28;20037;-87
2023/07/24 03:10:00;;;;;;;18.98;10.25;;;14.80;99.90;;;;;;5086501;28;20037;-88
2023/07/24 03:12:48;;;;;;;16.95;10.38;;;14.70;99.90;;;;;;5079574;28;20053;-90
2023/07/24 03:15:35;;;;;;;14.77;9.68;;;14.70;1.00;;;;;;5057694;28;20064;-90
2023/07/24 03:18:23;;;;;;;16.52;9.85;;;14.50;99.90;;;;;;5071691;28;20048;-88
2023/07/24 03:21:10;;;;;;;14.88;9.40;;;14.50;1.00;;;;;;5061059;28;20048;-89
2023/07/24 03:23:57;;;;;;;13.93;9.40;;;14.50;1.00;;;;;;5058644;28;20057;-90
2023/07/24 03:26:52;;;;;;;16.02;9.98;;;14.40;99.90;;;;;;5047035;28;20068;-89
2023/07/24 03:29:44;;;;;;;16.52;10.25;;;14.40;99.90;;;;;;5046077;28;20098;-89
2023/07/24 03:32:31;;;;;;;15.70;10.15;;;14.40;1.00;;;;;;5059919;28;20072;-91
2023/07/24 03:35:19;;;;;;;17.08;10.52;;;14.40;99.90;;;;;;5058038;28;20146;-90
2023/07/24 03:38:09;;;;;;;19.40;10.57;;;14.40;99.90;;;;;;5052009;28;20048;-91
2023/07/24 03:40:56;;;;;;;18.85;10.50;;;14.50;1.00;;;;;;5049170;28;20040;-89
2023/07/24 03:44:02;;;;;;;16.88;10.75;;;14.70;99.90;;;;;;5057984;28;20041;-91
2023/07/24 03:46:49;;;;;;;16.33;10.20;;;14.70;99.90;;;;;;5057814;28;20048;-90
2023/07/24 03:49:37;;;;;;;15.40;9.68;;;14.60;99.90;;;;;;5077378;28;20053;-91
2023/07/24 03:52:24;;;;;;;18.35;10.30;;;14.70;99.90;;;;;;5057639;28;20037;-90
2023/07/24 03:55:11;;;;;;;14.57;9.95;;;14.80;1.00;;;;;;5057306;28;20052;-90
2023/07/24 03:57:58;;;;;;;14.68;9.68;;;14.80;1.00;;;;;;5048580;28;20112;-92
2023/07/24 04:00:51;;;;;;;17.77;10.32;;;15.00;59.20;;;;;;5056190;28;20045;-89
2023/07/24 04:03:52;;;;;;;14.57;9.48;;;15.40;99.90;;;;;;5044886;28;20116;-89
2023/07/24 04:06:57;;;;;;;17.30;10.32;;;15.50;1.00;;;;;;5049924;28;20415;-89
2023/07/24 04:10:04;;;;;;;15.35;9.45;;;15.50;99.90;;;;;;5056639;28;20369;-89
2023/07/24 04:12:54;;;;;;;15.77;9.57;;;15.80;99.90;;;;;;5057589;28;20101;-90
2023/07/24 04:15:41;;;;;;;16.42;9.73;;;16.00;94.10;;;;;;5052222;28;20041;-90
2023/07/24 04:18:28;;;;;;;16.20;9.45;;;16.10;1.00;;;;;;5056310;28;20052;-90
2023/07/24 04:21:16;;;;;;;13.35;9.25;;;16.30;1.00;;;;;;5056579;28;20370;-86
2023/07/24 04:24:05;;;;;;;16.92;9.13;;;16.30;1.00;;;;;;5061043;28;20056;-89
2023/07/24 04:26:53;;;;;;;13.57;8.93;;;16.40;1.00;;;;;;5061667;28;20056;-93
2023/07/24 04:29:40;;;;;;;17.65;10.23;;;16.40;1.00;;;;;;5056641;28;20047;-90
2023/07/24 04:32:29;;;;;;;15.18;9.32;;;16.30;1.00;;;;;;5056335;28;20805;-92
2023/07/24 04:35:16;;;;;;;14.55;9.38;;;16.40;1.00;;;;;;5057893;28;20040;-91
2023/07/24 04:38:04;;;;;;;15.32;8.57;;;16.40;1.00;;;;;;5057380;28;20041;-92
2023/07/24 04:40:51;;;;;;;17.40;10.85;;;16.60;1.00;;;;;;5056172;28;20049;-94
2023/07/24 04:43:38;;;;;;;18.02;9.63;;;16.60;99.90;;;;;;5056681;28;20049;-89
2023/07/24 04:46:26;;;;;;;16.90;9.55;;;16.70;99.90;;;;;;5050130;28;20049;-88
2023/07/24 04:49:13;;;;;;;16.05;10.43;;;16.60;99.90;;;;;;5060938;28;20033;-87
2023/07/24 04:52:00;;;;;;;18.75;10.45;;;16.50;99.90;;;;;;5058359;28;20040;-90
2023/07/24 04:54:47;;;;;;;17.50;9.68;;;16.50;99.90;;;;;;5058697;28;20045;-91
2023/07/24 04:57:35;;;;;;;15.60;10.45;;;16.50;99.90;;;;;;5055796;28;20049;-94
2023/07/24 05:00:24;;;;;;;16.65;10.23;;;16.50;99.90;;;;;;5059032;28;20458;-91
2023/07/24 05:03:12;;;;;;;14.52;9.23;;;16.60;99.90;;;;;;5057886;28;20045;-93
2023/07/24 05:05:59;;;;;;;17.27;10.80;;;16.70;99.90;;;;;;5053995;28;20120;-93
2023/07/24 05:08:47;;;;;;;18.95;9.95;;;16.90;99.90;;;;;;5051199;28;20117;-88
2023/07/24 05:11:34;;;;;;;15.43;9.77;;;17.00;99.90;;;;;;5069639;28;20056;-90
2023/07/24 05:14:21;;;;;;;16.35;9.55;;;17.00;99.90;;;;;;5055388;28;20072;-91
2023/07/24 05:17:09;;;;;;;17.65;9.70;;;17.10;99.90;;;;;;5054619;28;20515;-87
2023/07/24 05:19:56;;;;;;;18.88;9.70;;;17.10;99.90;;;;;;5058274;28;20106;-88
2023/07/24 05:22:47;;;;;;;17.20;10.65;;;17.10;99.90;;;;;;5048879;28;20746;-89
2023/07/24 05:25:34;;;;;;;19.58;9.85;;;17.10;99.90;;;;;;5048333;28;20045;-89
2023/07/24 05:28:21;;;;;;;16.67;9.25;;;17.10;99.90;;;;;;5054657;28;20251;-89
2023/07/24 05:31:09;;;;;;;16.33;9.70;;;17.10;99.90;;;;;;5055608;28;20432;-89
2023/07/24 05:33:59;;;;;;;17.20;9.45;;;17.20;99.90;;;;;;5060074;28;20465;-88
2023/07/24 05:36:46;;;;;;;15.63;9.50;;;17.30;99.90;;;;;;5058809;28;20461;-88
2023/07/24 05:39:34;;;;;;;16.48;8.70;;;17.40;99.90;;;;;;5045546;28;20053;-90
2023/07/24 05:42:21;;;;;;;15.52;9.13;;;17.40;97.60;;;;;;5044652;28;20175;-88
2023/07/24 05:45:15;;;;;;;17.73;9.57;;;17.50;8.70;;;;;;5060870;28;20532;-88
2023/07/24 05:48:21;;;;;;;14.02;9.20;;;17.60;1.00;;;;;;5049388;28;20247;-86
2023/07/24 05:51:08;;;;;;;16.58;9.82;;;17.60;1.00;;;;;;5049197;28;20105;-90
2023/07/24 05:53:58;;;;;;;14.98;9.70;;;17.60;1.00;;;;;;5051096;28;20040;-88
2023/07/24 05:56:45;;;;;;;16.92;9.45;;;17.70;1.00;;;;;;5048341;28;20040;-93
2023/07/24 05:59:36;;;;;;;14.65;9.55;;;17.80;1.00;;;;;;5050612;28;20057;-89
2023/07/24 06:02:25;;;;;;;17.40;9.85;;;17.90;1.00;;;;;;5046987;28;20052;-89
2023/07/24 06:05:13;;;;;;;16.60;9.93;;;17.90;1.00;;;;;;5048476;28;20139;-89
2023/07/24 06:08:00;;;;;;;18.85;9.68;;;17.80;1.00;;;;;;5050071;28;20076;-89
2023/07/24 06:10:51;;;;;;;14.95;9.75;;;17.80;1.00;;;;;;5051864;28;20041;-90
2023/07/24 06:13:57;;;;;;;19.77;10.32;;;17.90;1.00;;;;;;5052292;28;20078;-88
2023/07/24 06:16:45;;;;;;;16.42;10.05;;;18.00;1.00;;;;;;5057013;28;20045;-89
2023/07/24 06:19:32;;;;;;;16.55;10.05;;;18.00;1.00;;;;;;5063376;28;20227;-86
2023/07/24 06:22:21;;;;;;;16.23;9.93;;;18.00;1.00;;;;;;5050617;28;20049;-87
2023/07/24 06:25:09;;;;;;;16.92;9.77;;;18.00;1.00;;;;;;5053171;28;20049;-88
2023/07/24 06:28:00;;;;;;;17.27;10.40;;;18.10;1.00;;;;;;5065342;28;20045;-87
2023/07/24 06:30:48;;;;;;;17.38;10.38;;;18.10;1.00;;;;;;5051900;28;20355;-86
2023/07/24 06:33:35;;;;;;;14.68;9.82;;;18.20;1.00;;;;;;5051483;28;20037;-88
2023/07/24 06:36:23;;;;;;;17.48;10.32;;;18.30;1.00;;;;;;5050369;28;20430;-88
2023/07/24 06:39:11;;;;;;;15.52;9.70;;;18.40;1.00;;;;;;5051412;28;20053;-90
2023/07/24 06:41:59;;;;;;;16.30;10.02;;;18.60;1.00;;;;;;5047218;28;20060;-91
2023/07/24 06:44:46;;;;;;;19.95;10.57;;;18.80;1.00;;;;;;5047555;28;20045;-88
2023/07/24 06:47:37;;;;;;;17.73;10.73;;;18.90;1.00;;;;;;5048933;28;20049;-86
2023/07/24 06:50:24;;;;;;;17.17;9.48;;;19.00;1.00;;;;;;5050396;28;20052;-90
2023/07/24 06:53:15;;;;;;;19.52;9.77;;;19.20;1.00;;;;;;5049909;28;20045;-88
2023/07/24 06:56:03;;;;;;;19.83;10.40;;;19.30;1.00;;;;;;5048971;28;20041;-89
2023/07/24 06:58:50;;;;;;;15.10;9.82;;;19.40;1.00;;;;;;5061056;28;20055;-89
2023/07/24 07:01:38;;;;;;;17.55;10.30;;;19.50;1.00;;;;;;5050726;28;20390;-88
2023/07/24 07:04:26;;;;;;;16.02;10.05;;;19.60;1.00;;;;;;5051498;28;20068;-90
2023/07/24 07:07:16;;;;;;;15.82;9.25;;;19.70;99.90;;;;;;5046651;28;20045;-88
2023/07/24 07:10:05;;;;;;;19.13;9.77;;;19.70;99.90;;;;;;5052370;28;20056;-91
2023/07/24 07:12:52;;;;;;;15.63;10.02;;;19.90;99.90;;;;;;5055028;28;20073;-89
2023/07/24 07:15:39;;;;;;;18.13;9.73;;;20.00;99.90;;;;;;5049985;28;20057;-87
2023/07/24 07:18:27;;;;;;;18.77;10.05;;;19.90;99.90;;;;;;5050246;28;20492;-87
2023/07/24 07:21:17;;;;;;;13.73;9.60;;;20.00;99.90;;;;;;5069528;28;20137;-87
2023/07/24 07:24:04;;;;;;;14.77;9.35;;;20.20;99.90;;;;;;5058768;28;20044;-87
2023/07/24 07:27:00;;;;;;;15.93;9.45;;;20.10;99.90;;;;;;5056618;28;20045;-86
2023/07/24 07:29:48;;;;;;;15.68;9.75;;;20.10;99.90;;;;;;5067878;28;20052;-86
2023/07/24 07:32:35;;;;;;;16.58;10.07;;;20.20;99.90;;;;;;5053772;28;20037;-87
2023/07/24 07:35:25;;;;;;;16.40;9.48;;;20.20;99.90;;;;;;5055146;28;20511;-89
2023/07/24 07:38:13;;;;;;;15.05;9.50;;;20.30;99.90;;;;;;5053744;28;20119;-88
2023/07/24 07:41:04;;;;;;;16.92;9.93;;;20.40;99.90;;;;;;5053186;28;20052;-88
2023/07/24 07:43:52;;;;;;;18.50;10.57;;;20.40;99.90;;;;;;5058813;28;20049;-86
2023/07/24 07:46:39;;;;;;;16.23;9.77;;;20.40;99.90;;;;;;5055244;28;20462;-87
2023/07/24 07:49:27;;;;;;;14.77;9.45;;;20.30;99.90;;;;;;5052597;28;20687;-87
2023/07/24 07:52:17;;;;;;;14.85;9.13;;;20.20;99.90;;;;;;5065046;28;20045;-85
2023/07/24 07:55:06;;;;;;;17.60;10.25;;;19.90;99.90;;;;;;5064966;28;20502;-86
2023/07/24 07:57:54;;;;;;;16.25;10.00;;;19.70;99.90;;;;;;5050728;28;20442;-86
2023/07/24 08:00:46;;;;;;;23.88;9.52;;;19.50;1.00;;;;;;5053798;28;20458;-88
2023/07/24 08:03:37;;;;;;;17.40;10.00;;;19.30;1.00;;;;;;5070159;28;20132;-89
2023/07/24 08:06:30;;;;;;;21.95;10.45;;;19.20;1.00;;;;;;5056953;28;20036;-89
2023/07/24 08:09:18;;;;;;;16.90;10.38;;;19.00;99.90;;;;;;5052269;28;20082;-90
2023/07/24 08:12:09;;;;;;;15.02;9.75;;;18.70;99.90;;;;;;5055046;28;20057;-92
2023/07/24 08:15:18;;;;;;;17.33;10.20;;;18.30;1.00;;;;;;5011117;28;20042;-88
2023/07/24 08:18:08;;;;;;;14.30;9.68;;;17.90;1.00;;;;;;5008997;28;20053;-89
2023/07/24 08:20:58;;;;;;;20.02;9.70;;;17.70;1.00;;;;;;4994004;28;20046;-85
2023/07/24 08:23:49;;;;;;;17.05;9.65;;;17.60;1.00;;;;;;4992532;28;20069;-86
2023/07/24 08:26:39;;;;;;;16.58;9.00;;;17.60;99.90;;;;;;5010494;28;20057;-88
2023/07/24 08:29:29;;;;;;;14.57;9.40;;;17.50;1.00;;;;;;4994728;28;20065;-88
2023/07/24 08:32:22;;;;;;;19.20;9.32;;;17.60;99.90;;;;;;5009844;28;20105;-85
2023/07/24 08:35:10;;;;;;;15.48;9.50;;;17.60;99.90;;;;;;5012255;28;20050;-88
2023/07/24 08:37:57;;;;;;;17.58;8.48;;;17.60;56.20;;;;;;4997695;28;20498;-91
2023/07/24 08:40:48;;;;;;;19.30;9.40;;;17.60;99.90;;;;;;4998418;28;20603;-86
2023/07/24 08:43:36;;;;;;;15.82;9.20;;;17.60;1.00;;;;;;5004882;28;20052;-88
2023/07/24 08:46:24;;;;;;;19.42;9.35;;;17.70;99.90;;;;;;5008201;28;20209;-88
2023/07/24 08:49:13;;;;;;;13.00;8.38;;;17.80;99.90;;;;;;4995240;28;20042;-89
2023/07/24 08:52:01;;;;;;;18.60;9.00;;;17.80;99.90;;;;;;5027332;28;20041;-87
2023/07/24 08:54:49;;;;;;;14.88;8.55;;;17.90;1.00;;;;;;5049069;28;20503;-90
2023/07/24 08:57:45;;;;;;;11.00;7.75;;;18.00;99.90;;;;;;5050443;28;20087;-91
2023/07/24 09:00:41;;;;;;;11.15;7.18;;;18.20;99.90;;;;;;5049490;28;20131;-86
2023/07/24 09:03:34;;;;;;;11.30;6.70;;;18.40;1.00;;;;;;5052480;28;20045;-90
2023/07/24 09:06:26;;;;;;;9.63;5.82;;;18.50;99.90;;;;;;5055956;28;20052;-90
2023/07/24 09:09:15;;;;;;;6.85;5.18;;;18.70;1.00;;;;;;5055496;28;20041;-91
2023/07/24 09:12:08;;;;;;;7.80;5.70;;;18.90;1.00;;;;;;5052071;28;20131;-91
2023/07/24 09:15:06;;;;;;;7.40;4.97;;;19.10;99.90;;;;;;5055845;28;20047;-90
2023/07/24 09:17:54;;;;;;;9.60;5.82;;;19.30;1.00;;;;;;5052564;28;20033;-87
2023/07/24 09:20:44;;;;;;;9.48;5.68;;;19.50;1.00;;;;;;5065497;28;20091;-89
2023/07/24 09:23:31;;;;;;;9.05;5.43;;;19.80;99.90;;;;;;5048971;28;20044;-89
2023/07/24 09:26:19;;;;;;;8.77;6.05;;;19.80;99.90;;;;;;5050502;28;20366;-90
2023/07/24 09:29:10;;;;;;;11.25;6.00;;;19.80;33.20;;;;;;5052454;28;20037;-88
2023/07/24 09:32:01;;;;;;;10.90;6.75;;;19.70;77.80;;;;;;5054335;28;20048;-90
2023/07/24 09:34:53;;;;;;;11.27;6.10;;;19.70;1.00;;;;;;5050710;28;20053;-88
2023/07/24 09:37:41;;;;;;;9.82;6.10;;;19.70;33.30;;;;;;5051167;28;20125;-89
2023/07/24 09:40:41;;;;;;;10.00;6.80;;;19.70;10.30;;;;;;5050648;28;20489;-87
2023/07/24 09:43:32;;;;;;;10.02;6.57;;;19.70;1.80;;;;;;5048585;28;20490;-87
2023/07/24 09:46:29;;;;;;;11.50;7.28;;;19.70;29.70;;;;;;5048918;28;20045;-89
2023/07/24 09:49:18;;;;;;;11.02;6.82;;;19.60;99.90;;;;;;5051479;28;20052;-89
2023/07/24 09:52:09;;;;;;;9.18;6.65;;;19.60;99.90;;;;;;5054669;28;20130;-89
2023/07/24 09:55:21;;;;;;;11.25;7.88;;;19.60;99.90;;;;;;5051223;28;20481;-90
2023/07/24 09:58:13;;;;;;;11.63;7.95;;;19.50;99.90;;;;;;5051857;28;20060;-90
2023/07/24 10:01:05;;;;;;;11.35;7.43;;;19.30;99.90;;;;;;5055165;28;20477;-89
2023/07/24 10:03:56;;;;;;;11.38;7.18;;;19.30;1.00;;;;;;5065812;28;20419;-89
2023/07/24 10:07:08;;;;;;;12.82;7.53;;;19.20;1.00;;;;;;5066612;28;20037;-90
2023/07/24 10:09:59;;;;;;;12.98;8.75;;;19.10;99.90;;;;;;5049579;28;20045;-89
2023/07/24 10:12:49;;;;;;;12.02;7.90;;;18.90;1.00;;;;;;5052474;28;20059;-91
2023/07/24 10:15:55;;;;;;;12.00;7.95;;;18.70;1.00;;;;;;5050415;28;20055;-91
2023/07/24 10:19:15;;;;;;;14.60;8.25;;;18.60;99.90;;;;;;5055617;28;20214;-89
2023/07/24 10:22:03;;;;;;;12.05;8.52;;;18.40;99.90;;;;;;5051606;28;20041;-90
2023/07/24 10:24:56;;;;;;;16.30;8.93;;;18.30;35.40;;;;;;5053248;28;20485;-90
2023/07/24 10:28:16;;;;;;;19.88;10.27;;;18.10;23.70;;;;;;5054255;28;20137;-89
2023/07/24 10:31:08;;;;;;;14.50;9.45;;;17.90;7.30;;;;;;5055062;28;20048;-92
2023/07/24 10:34:45;;;;;;;18.48;10.25;;;17.80;99.90;;;;;;5054662;28;20037;-92
2023/07/24 10:37:37;;;;;;;16.15;9.73;;;17.70;99.90;;;;;;5000041;28;20042;-88
2023/07/24 10:40:53;;;;;;;17.50;10.53;;;17.60;99.90;;;;;;5051063;28;20466;-91
2023/07/24 10:43:50;;;;;;;16.70;10.32;;;17.50;99.90;;;;;;5048813;28;20060;-88
2023/07/24 10:46:54;;;;;;;17.20;10.48;;;17.50;99.90;;;;;;5061241;28;20094;-86
2023/07/24 10:49:56;;;;;;;17.95;10.48;;;17.40;99.90;;;;;;5051303;28;20096;-86
2023/07/24 10:52:47;;;;;;;20.88;10.30;;;17.40;99.90;;;;;;5055421;28;20055;-87
2023/07/24 10:55:36;;;;;;;;;;;17.40;99.90;;;;;;5051700;28;20472;-86
2023/07/24 10:58:26;;;;;;;22.27;10.27;;;17.40;99.90;;;;;;5056272;28;19931;-84
2023/07/24 11:01:14;;;;;;;20.67;11.35;;;17.30;99.90;;;;;;5046696;28;20044;-87
2023/07/24 11:04:04;;;;;;;17.58;11.25;;;17.30;99.90;;;;;;5056030;28;20457;-85
2023/07/24 11:06:53;;;;;;;16.73;11.07;;;17.30;99.90;;;;;;5065582;28;20186;-86
2023/07/24 11:09:41;;;;;;;15.98;11.00;;;17.20;99.90;;;;;;5052446;28;20068;-85
2023/07/24 11:12:31;;;;;;;17.40;10.90;;;17.20;99.90;;;;;;5051417;28;20041;-86
2023/07/24 11:15:42;;;;;;;17.83;10.73;;;17.20;99.90;;;;;;5047927;28;20355;-89
2023/07/24 11:18:47;;;;;;;16.40;10.20;;;17.10;99.90;;;;;;5050824;28;20120;-87
2023/07/24 11:21:43;;;;;;;15.23;9.98;;;17.00;99.90;;;;;;5055373;28;20131;-84
2023/07/24 11:24:31;;;;;;;14.05;9.98;;;17.00;99.90;;;;;;5052951;28;20143;-87
2023/07/24 11:27:19;;;;;;;16.60;10.50;;;17.00;99.90;;;;;;5052485;28;20049;-87
2023/07/24 11:30:07;;;;;;;11.93;10.07;;;17.00;99.90;;;;;;5053772;28;20133;-88
2023/07/24 11:32:59;;;;;;;16.52;11.15;;;17.20;99.90;;;;;;5053153;28;20128;-87
2023/07/24 11:35:47;;;;;;;13.13;10.18;;;17.40;99.90;;;;;;5050870;28;21097;-85
2023/07/24 11:38:37;;;;;;;16.63;9.85;;;17.80;99.90;;;;;;5053492;28;20381;-87
2023/07/24 11:41:26;;;;;;;12.18;8.73;;;18.70;99.90;;;;;;5057764;28;20106;-88
2023/07/24 11:44:19;;;;;;;12.23;8.65;;;18.70;99.90;;;;;;5052828;28;20041;-87
2023/07/24 11:47:06;;;;;;;15.10;8.73;;;19.00;99.90;;;;;;5051323;28;20109;-83
2023/07/24 11:49:59;;;;;;;15.48;8.23;;;19.00;99.90;;;;;;5050421;28;20056;-82
2023/07/24 11:52:49;;;;;;;13.07;8.65;;;18.90;99.90;;;;;;5054078;28;20052;-84
2023/07/24 11:55:36;;;;;;;14.63;8.50;;;18.80;99.90;;;;;;5048288;28;20033;-82
2023/07/24 11:58:27;;;;;;;11.38;8.00;;;18.70;99.90;;;;;;5050692;28;20041;-84
2023/07/24 12:01:15;;;;;;;11.35;7.28;;;19.10;99.90;;;;;;5049416;28;20045;-83
2023/07/24 12:04:02;;;;;;;13.25;8.40;;;19.90;99.90;;;;;;5047481;28;20080;-84
2023/07/24 12:06:51;;;;;;;10.90;7.15;;;20.80;99.90;;;;;;5068835;28;20041;-85
2023/07/24 12:09:49;;;;;;;12.25;7.30;;;21.10;99.90;;;;;;5051640;28;20450;-91
2023/07/24 12:12:44;;;;;;;13.15;7.85;;;20.60;1.00;;;;;;5051914;28;20055;-85
2023/07/24 12:15:35;;;;;;;12.02;7.53;;;20.50;99.90;;;;;;5052382;28;20037;-85
2023/07/24 12:18:25;;;;;;;12.30;7.70;;;21.20;99.90;;;;;;5051963;28;20065;-88
2023/07/24 12:21:12;;;;;;;8.18;6.70;;;22.10;99.90;;;;;;5053473;28;20075;-89
2023/07/24 12:24:00;;;;;;;10.45;7.05;;;22.40;99.90;;;;;;5052691;28;20476;-85
2023/07/24 12:26:47;;;;;;;9.85;7.15;;;22.20;99.90;;;;;;5050650;28;20056;-88
2023/07/24 12:29:34;;;;;;;12.95;7.47;;;21.60;99.90;;;;;;5050475;28;20179;-86
2023/07/24 12:32:30;;;;;;;12.98;7.07;;;21.20;99.90;;;;;;5047727;28;20091;-89
2023/07/24 12:35:18;;;;;;;9.93;6.90;;;21.00;99.90;;;;;;5052632;28;20053;-88
2023/07/24 12:38:08;;;;;;;10.95;7.38;;;20.60;99.90;;;;;;5058967;28;20489;-86
2023/07/24 12:40:55;;;;;;;8.85;6.15;;;20.40;99.90;;;;;;5053665;28;20052;-90
2023/07/24 12:43:51;;;;;;;10.07;6.78;;;21.00;99.90;;;;;;5053657;28;20466;-91
2023/07/24 12:46:44;;;;;;;10.98;6.65;;;21.80;99.90;;;;;;5051803;28;20041;-91
2023/07/24 12:49:44;;;;;;;10.93;6.18;;;21.70;1.00;;;;;;5053355;28;20517;-88
2023/07/24 12:52:34;;;;;;;8.88;6.07;;;21.30;1.00;;;;;;5050355;28;20045;-87
2023/07/24 12:55:21;;;;;;;10.27;6.18;;;21.00;1.00;;;;;;5069865;28;20585;-88
2023/07/24 12:58:13;;;;;;;8.55;5.93;;;20.80;99.90;;;;;;5053638;28;20041;-86
2023/07/24 13:01:08;;;;;;;9.32;5.47;;;21.00;99.90;;;;;;5063449;28;20106;-88
2023/07/24 13:03:56;;;;;;;8.13;5.50;;;21.50;99.90;;;;;;5053336;28;20055;-85
2023/07/24 13:06:43;;;;;;;7.20;5.25;;;22.10;99.90;;;;;;5054420;28;20085;-87
2023/07/24 13:09:31;;;;;;;9.27;5.60;;;22.20;89.70;;;;;;5051023;28;20044;-85
2023/07/24 13:12:18;;;;;;;7.72;5.15;;;22.50;26.00;;;;;;5050990;28;20049;-85
2023/07/24 13:15:06;;;;;;;8.18;5.63;;;23.40;1.00;;;;;;5061569;28;20108;-86
2023/07/24 13:17:53;;;;;;;9.55;5.75;;;23.50;1.00;;;;;;5048397;28;20064;-85
2023/07/24 13:20:41;;;;;;;7.47;5.70;;;23.00;1.00;;;;;;5050029;28;20049;-86
2023/07/24 13:23:32;;;;;;;11.43;5.47;;;23.10;1.00;;;;;;5062662;28;20061;-87
2023/07/24 13:26:19;;;;;;;8.02;5.03;;;22.80;1.00;;;;;;5052267;28;20383;-86
2023/07/24 13:29:07;;;;;;;8.20;5.00;;;22.70;1.00;;;;;;5064340;28;20053;-88
2023/07/24 13:31:54;;;;;;;9.45;5.10;;;22.10;99.90;;;;;;5052275;28;20052;-88
2023/07/24 13:34:44;;;;;;;11.27;5.00;;;21.80;99.90;;;;;;5049918;28;20040;-94
2023/07/24 13:37:32;;;;;;;6.40;4.60;;;21.70;99.90;;;;;;5049253;28;20144;-88
2023/07/24 13:40:22;;;;;;;6.28;4.20;;;21.90;99.90;;;;;;5053975;28;20056;-88
2023/07/24 13:43:34;;;;;;;6.32;4.90;;;21.70;99.90;;;;;;5056714;28;20049;-87
2023/07/24 13:46:22;;;;;;;6.75;4.57;;;21.30;99.90;;;;;;5052200;28;20056;-87
2023/07/24 13:49:09;;;;;;;6.88;5.10;;;21.10;99.90;;;;;;5050197;28;20370;-86
2023/07/24 13:51:59;;;;;;;6.72;4.65;;;21.40;99.90;;;;;;5054396;28;20049;-86
2023/07/24 13:54:47;;;;;;;7.53;5.13;;;22.00;99.90;;;;;;5050585;28;20041;-89
2023/07/24 13:57:41;;;;;;;6.47;4.87;;;22.20;99.90;;;;;;5050608;28;20033;-88
2023/07/24 14:00:37;;;;;;;9.35;5.05;;;22.10;99.90;;;;;;5048946;28;20613;-89
2023/07/24 14:03:28;;;;;;;6.18;4.38;;;22.20;99.90;;;;;;5066750;28;20044;-87
2023/07/24 14:06:19;;;;;;;6.75;4.55;;;22.50;99.90;;;;;;5062151;28;20086;-90
2023/07/24 14:09:07;;;;;;;4.67;4.00;;;23.70;99.90;;;;;;5049219;28;20052;-90
2023/07/24 14:11:54;;;;;;;5.88;4.22;;;24.80;99.90;;;;;;5066639;28;20092;-87
2023/07/24 14:14:43;;;;;;;7.35;4.75;;;24.50;99.90;;;;;;5055545;28;20053;-89
2023/07/24 14:17:37;;;;;;;6.05;4.30;;;23.40;99.90;;;;;;5063905;28;20048;-91
2023/07/24 14:20:27;;;;;;;6.68;4.32;;;23.00;99.90;;;;;;5079623;28;20389;-87
2023/07/24 14:23:15;;;;;;;6.22;4.05;;;23.40;99.90;;;;;;5065669;28;20126;-88
2023/07/24 14:26:03;;;;;;;5.88;4.20;;;23.70;99.90;;;;;;5050363;28;20059;-88
2023/07/24 14:28:51;;;;;;;7.60;4.60;;;23.30;99.90;;;;;;5052610;28;20063;-86
2023/07/24 14:31:42;;;;;;;6.85;4.90;;;22.80;99.90;;;;;;5047988;28;20053;-88
2023/07/24 14:34:30;;;;;;;5.18;4.47;;;22.90;99.90;;;;;;5053786;28;20381;-90
2023/07/24 14:37:20;;;;;;;6.60;4.22;;;23.60;99.90;;;;;;5057449;28;20128;-90
2023/07/24 14:40:19;;;;;;;6.07;4.20;;;23.60;99.90;;;;;;5070843;28;20045;-88